createdAt,value
2018-09-11T00:04:53.280Z,3.43
2018-09-11T00:09:57.336Z,3.70
2018-09-11T00:15:01.427Z,3.30
2018-09-11T00:20:05.575Z,3.23
2018-09-11T00:25:10.162Z,3.67
2018-09-11T00:30:14.320Z,3.23
2018-09-11T00:35:18.365Z,3.93
2018-09-11T00:40:22.299Z,3.93
2018-09-11T00:45:26.359Z,3.50
2018-09-11T00:50:30.418Z,3.70
2018-09-11T00:55:34.486Z,3.70
2018-09-11T01:00:38.307Z,3.47
2018-09-11T01:05:42.355Z,3.27
2018-09-11T01:10:46.511Z,3.43
2018-09-11T01:15:50.559Z,3.07
2018-09-11T01:20:54.734Z,3.40
2018-09-11T01:25:58.902Z,3.23
2018-09-11T01:31:02.945Z,3.20
2018-09-11T01:36:07.077Z,3.20
2018-09-11T01:41:11.137Z,3.00
2018-09-11T01:46:16.684Z,2.83
2018-09-11T01:51:20.794Z,3.40
2018-09-11T01:56:24.939Z,2.77
2018-09-11T02:01:29.001Z,3.23
2018-09-11T02:06:32.789Z,2.90
2018-09-11T02:11:36.910Z,2.63
2018-09-11T02:16:40.954Z,2.97
2018-09-11T02:21:45.090Z,2.60
2018-09-11T02:26:49.103Z,2.57
2018-09-11T02:31:52.918Z,2.77
2018-09-11T02:36:56.958Z,3.07
2018-09-11T02:42:00.993Z,2.93
2018-09-11T02:47:04.810Z,3.13
2018-09-11T02:52:08.845Z,2.90
2018-09-11T02:57:12.667Z,3.33
2018-09-11T03:02:16.922Z,3.37
2018-09-11T03:07:21.024Z,3.40
2018-09-11T03:12:25.047Z,2.90
2018-09-11T03:17:28.897Z,3.20
2018-09-11T03:22:32.947Z,2.90
2018-09-11T03:27:37.021Z,2.97
2018-09-11T03:32:41.123Z,3.43
2018-09-11T03:37:45.409Z,3.50
2018-09-11T03:42:49.243Z,3.30
2018-09-11T03:47:53.275Z,3.30
2018-09-11T03:52:57.079Z,3.40
2018-09-11T03:58:01.258Z,3.30
2018-09-11T04:03:05.301Z,3.43
2018-09-11T04:08:09.197Z,3.27
2018-09-11T04:13:13.256Z,3.07
2018-09-11T04:18:17.418Z,3.27
2018-09-11T04:23:21.465Z,3.40
2018-09-11T04:28:25.542Z,3.23
2018-09-11T04:33:29.616Z,2.93
2018-09-11T04:38:33.677Z,3.22
2018-09-11T04:43:37.478Z,3.90
2018-09-11T04:48:43.770Z,3.03
2018-09-11T04:53:47.827Z,3.30
2018-09-11T04:58:52.004Z,2.97
2018-09-11T05:03:56.070Z,3.57
2018-09-11T05:09:00.191Z,3.10
2018-09-11T05:14:04.328Z,3.43
2018-09-11T05:19:08.466Z,3.23
2018-09-11T05:24:12.557Z,3.20
2018-09-11T05:29:16.886Z,3.90
2018-09-11T05:34:21.647Z,3.27
2018-09-11T05:39:25.534Z,2.83
2018-09-11T05:44:29.618Z,3.00
2018-09-11T05:49:33.693Z,3.00
2018-09-11T05:54:37.501Z,2.58
2018-09-11T05:59:41.638Z,2.47
2018-09-11T06:04:46.661Z,2.70
2018-09-11T06:09:50.782Z,2.70
2018-09-11T06:14:54.846Z,2.50
2018-09-11T06:19:58.929Z,2.80
2018-09-11T06:25:02.981Z,2.50
2018-09-11T06:30:07.073Z,2.37
2018-09-11T06:35:10.892Z,2.17
2018-09-11T06:40:15.064Z,2.30
2018-09-11T06:45:19.148Z,2.40
2018-09-11T06:50:23.193Z,2.47
2018-09-11T06:55:27.257Z,2.50
2018-09-11T07:00:31.643Z,2.10
2018-09-11T07:05:35.808Z,2.40
2018-09-11T07:10:39.875Z,2.30
2018-09-11T07:15:43.989Z,1.80
2018-09-11T07:20:48.706Z,1.90
2018-09-11T07:25:52.844Z,1.80
2018-09-11T07:30:56.678Z,1.73
2018-09-11T07:36:00.841Z,2.00
2018-09-11T07:41:04.901Z,1.93
2018-09-11T07:46:08.994Z,1.50
2018-09-11T07:51:13.064Z,1.90
2018-09-11T07:56:17.106Z,1.70
2018-09-11T08:01:21.230Z,1.70
2018-09-11T08:06:25.268Z,1.60
2018-09-11T08:11:29.305Z,1.60
2018-09-11T08:16:33.446Z,1.80
2018-09-11T08:21:37.393Z,1.87
2018-09-11T08:26:41.198Z,1.80
2018-09-11T08:31:45.046Z,1.70
2018-09-11T08:36:48.857Z,1.90
2018-09-11T08:41:52.727Z,2.13
2018-09-11T08:46:56.536Z,1.80
2018-09-11T08:52:00.640Z,2.00
2018-09-11T08:57:04.702Z,1.87
2018-09-11T09:02:08.774Z,1.70
2018-09-11T09:07:12.601Z,1.60
2018-09-11T09:12:16.642Z,1.70
2018-09-11T09:17:20.762Z,1.50
2018-09-11T09:22:24.817Z,1.70
2018-09-11T09:27:28.931Z,1.77
2018-09-11T09:32:33.733Z,1.73
2018-09-11T09:37:37.884Z,1.70
2018-09-11T09:42:41.993Z,1.60
2018-09-11T09:47:46.062Z,1.80
2018-09-11T09:52:50.174Z,1.70
2018-09-11T09:57:54.312Z,1.80
2018-09-11T10:02:58.450Z,1.70
2018-09-11T10:08:02.512Z,1.70
2018-09-11T10:13:06.678Z,1.60
2018-09-11T10:18:10.512Z,1.90
2018-09-11T10:23:14.637Z,1.40
2018-09-11T10:28:18.697Z,1.63
2018-09-11T10:33:22.846Z,1.80
2018-09-11T10:38:26.930Z,1.70
2018-09-11T10:43:31.062Z,1.70
2018-09-11T10:48:34.882Z,1.50
2018-09-11T10:53:38.947Z,1.73
2018-09-11T10:58:42.974Z,1.73
2018-09-11T11:03:47.091Z,1.43
2018-09-11T11:08:51.182Z,1.60
2018-09-11T11:13:54.984Z,1.53
2018-09-11T11:18:59.092Z,1.90
2018-09-11T11:24:03.138Z,1.77
2018-09-11T11:29:06.965Z,1.67
2018-09-11T11:34:11.024Z,2.10
2018-09-11T11:39:14.889Z,1.60
2018-09-11T11:44:18.745Z,1.60
2018-09-11T11:49:22.834Z,1.87
2018-09-11T11:54:26.658Z,1.60
2018-09-11T11:59:30.756Z,1.80
2018-09-11T12:04:34.854Z,1.73
2018-09-11T12:09:38.677Z,1.70
2018-09-11T12:14:42.531Z,1.83
2018-09-11T12:19:46.649Z,1.80
2018-09-11T12:24:50.734Z,2.20
2018-09-11T12:29:54.793Z,1.90
2018-09-11T12:34:58.894Z,1.80
2018-09-11T12:40:02.949Z,1.83
2018-09-11T12:45:07.181Z,1.80
2018-09-11T12:50:10.981Z,1.90
2018-09-11T12:55:15.070Z,1.80
2018-09-11T13:00:18.882Z,2.00
2018-09-11T13:05:22.905Z,1.77
2018-09-11T13:10:26.951Z,1.67
2018-09-11T13:15:31.041Z,1.80
2018-09-11T13:20:35.075Z,1.53
2018-09-11T13:25:39.117Z,2.00
2018-09-11T13:30:43.153Z,1.87
2018-09-11T13:35:47.186Z,1.90
2018-09-11T13:40:51.273Z,2.30
2018-09-11T13:45:55.362Z,1.80
2018-09-11T13:50:59.396Z,1.87
2018-09-11T13:56:03.528Z,2.00
2018-09-11T14:01:08.142Z,2.00
2018-09-11T14:06:12.180Z,2.10
2018-09-11T14:11:16.375Z,2.00
2018-09-11T14:16:20.407Z,2.13
2018-09-11T14:21:24.495Z,1.90
2018-09-11T14:26:28.550Z,2.00
2018-09-11T14:31:32.606Z,1.90
2018-09-11T14:36:36.753Z,2.03
2018-09-11T14:41:40.845Z,2.00
2018-09-11T14:46:44.961Z,2.00
2018-09-11T14:51:49.345Z,2.07
2018-09-11T14:56:53.161Z,2.30
2018-09-11T15:01:57.221Z,2.10
2018-09-11T15:07:01.392Z,2.10
2018-09-11T15:12:05.237Z,2.10
2018-09-11T15:17:09.309Z,2.10
2018-09-11T15:22:13.439Z,2.10
2018-09-11T15:27:17.205Z,2.30
2018-09-11T15:32:21.093Z,2.20
2018-09-11T15:37:25.160Z,2.40
2018-09-11T15:42:29.281Z,2.10
2018-09-11T15:47:33.330Z,2.30
2018-09-11T15:52:37.214Z,2.43
2018-09-11T15:57:41.041Z,2.37
2018-09-11T16:02:45.106Z,2.40
2018-09-11T16:07:48.924Z,2.03
2018-09-11T16:12:52.990Z,2.10
2018-09-11T16:17:56.790Z,2.20
2018-09-11T16:23:00.833Z,2.43
2018-09-11T16:28:05.013Z,2.20
2018-09-11T16:33:09.102Z,2.10
2018-09-11T16:38:13.158Z,2.33
2018-09-11T16:43:17.002Z,2.57
2018-09-11T16:48:20.877Z,2.30
2018-09-11T16:53:24.946Z,2.27
2018-09-11T16:58:29.028Z,2.27
2018-09-11T17:03:32.830Z,2.57
2018-09-11T17:08:36.749Z,2.40
2018-09-11T17:13:40.493Z,2.23
2018-09-11T17:18:44.324Z,2.27
2018-09-11T17:23:48.108Z,2.50
2018-09-11T17:28:52.211Z,2.33
2018-09-11T17:33:56.036Z,2.40
2018-09-11T17:39:00.116Z,2.20
2018-09-11T17:44:04.302Z,2.40
2018-09-11T17:49:08.150Z,2.30
2018-09-11T17:54:11.945Z,2.70
2018-09-11T17:59:16.159Z,2.20
2018-09-11T18:04:20.206Z,2.43
2018-09-11T18:09:24.261Z,2.63
2018-09-11T18:14:28.321Z,2.87
2018-09-11T18:19:32.409Z,2.70
2018-09-11T18:24:36.554Z,2.80
2018-09-11T18:29:40.372Z,2.83
2018-09-11T18:34:44.829Z,3.07
2018-09-11T18:39:48.946Z,2.97
2018-09-11T18:44:53.087Z,2.60
2018-09-11T18:49:56.889Z,3.03
2018-09-11T18:55:00.733Z,3.57
2018-09-11T19:00:04.895Z,3.00
2018-09-11T19:05:08.789Z,2.90
2018-09-11T19:10:12.786Z,3.30
2018-09-11T19:15:16.607Z,3.30
2018-09-11T19:20:20.621Z,2.90
2018-09-11T19:25:24.617Z,3.30
2018-09-11T19:30:28.738Z,3.10
2018-09-11T19:35:32.830Z,2.87
2018-09-11T19:40:37.006Z,3.00
2018-09-11T19:45:41.163Z,3.13
2018-09-11T19:50:45.609Z,3.40
2018-09-11T19:55:49.465Z,3.37
2018-09-11T20:00:53.295Z,3.23
2018-09-11T20:05:57.354Z,2.97
2018-09-11T20:11:01.486Z,2.90
2018-09-11T20:16:05.601Z,3.13
2018-09-11T20:21:09.694Z,3.10
2018-09-11T20:26:13.803Z,2.77
2018-09-11T20:31:17.871Z,3.33
2018-09-11T20:36:21.993Z,3.37
2018-09-11T20:41:26.088Z,3.00
2018-09-11T20:46:29.986Z,2.83
2018-09-11T20:51:34.053Z,2.80
2018-09-11T20:56:37.868Z,2.80
2018-09-11T21:01:41.943Z,2.80
2018-09-11T21:06:45.773Z,2.70
2018-09-11T21:11:50.581Z,3.07
2018-09-11T21:16:54.630Z,2.77
2018-09-11T21:21:58.690Z,3.00
2018-09-11T21:27:02.730Z,3.03
2018-09-11T21:32:07.159Z,2.77
2018-09-11T21:37:12.177Z,2.77
2018-09-11T21:42:16.310Z,3.20
2018-09-11T21:47:20.357Z,2.73
2018-09-11T21:52:24.388Z,3.10
2018-09-11T21:57:28.200Z,2.80
2018-09-11T22:02:32.041Z,2.77
2018-09-11T22:07:36.137Z,2.93
2018-09-11T22:12:40.623Z,2.93
2018-09-11T22:17:44.666Z,3.10
2018-09-11T22:22:48.693Z,2.73
2018-09-11T22:27:52.484Z,2.73
2018-09-11T22:32:56.618Z,2.50
2018-09-11T22:38:00.790Z,2.53
2018-09-11T22:43:04.915Z,2.70
2018-09-11T22:48:08.942Z,2.60
2018-09-11T22:53:12.986Z,2.90
2018-09-11T22:58:17.861Z,2.77
2018-09-11T23:03:21.902Z,2.90
2018-09-11T23:08:25.711Z,2.63
2018-09-11T23:13:29.542Z,3.10
2018-09-11T23:18:33.570Z,2.70
2018-09-11T23:23:37.665Z,2.92
2018-09-11T23:28:41.693Z,2.83
2018-09-11T23:33:46.734Z,3.27
2018-09-11T23:38:50.791Z,3.17
2018-09-11T23:43:54.861Z,3.37
2018-09-11T23:48:58.939Z,3.60
2018-09-11T23:54:02.978Z,3.33
2018-09-11T23:59:07.078Z,3.70
